Terminal Aerodrome Forecast
Issued by NWS Charleston, WV

Current Version | Previous Version | Graphics & Text | Print | Product List | Glossary On
Versions: 1 2 3 4 5 6 7 8 9 10 11 12 13 14 15 16 17 18 19 20 21 22 23 24 25 26 27 28 29
000
FTUS41 KRLX 201800 AAA
TAFBKW
TAF AMD
KBKW 201820Z 2018/2118 00000KT 1SM -SN OVC011
     FM201900 00000KT P6SM OVC010
     FM210500 00000KT P6SM BKN015
     FM210800 00000KT 5SM BR BKN015
     FM211400 00000KT P6SM BKN025=

USA.gov is the U.S. government's official web portal to all federal, state and local government web resources and services.